createdAt,value
2023-05-13T00:02:08.386Z,3.70
2023-05-13T00:04:38.597Z,3.80
2023-05-13T00:07:05.160Z,3.10
2023-05-13T00:09:31.623Z,3.72
2023-05-13T00:11:57.990Z,3.50
2023-05-13T00:14:24.408Z,4.20
2023-05-13T00:16:50.960Z,4.20
2023-05-13T00:19:19.944Z,3.47
2023-05-13T00:21:46.488Z,3.78
2023-05-13T00:24:12.972Z,3.90
2023-05-13T00:26:39.419Z,3.70
2023-05-13T00:29:05.991Z,3.72
2023-05-13T00:31:32.537Z,3.92
2023-05-13T00:33:59.113Z,3.72
2023-05-13T00:36:27.593Z,3.83
2023-05-13T00:38:56.384Z,3.80
2023-05-13T00:41:22.866Z,3.53
2023-05-13T00:43:49.364Z,3.58
2023-05-13T00:46:15.893Z,3.75
2023-05-13T00:48:42.451Z,3.40
2023-05-13T00:51:08.868Z,3.83
2023-05-13T00:53:35.360Z,3.60
2023-05-13T00:56:02.078Z,3.50
2023-05-13T00:58:28.738Z,3.88
2023-05-13T01:00:55.227Z,3.30
2023-05-13T01:03:29.655Z,3.75
2023-05-13T01:06:04.645Z,3.60
2023-05-13T01:08:35.252Z,3.85
2023-05-13T01:11:03.908Z,3.33
2023-05-13T01:13:31.894Z,3.90
2023-05-13T01:16:07.756Z,3.50
2023-05-13T01:18:39.837Z,3.45
2023-05-13T01:21:06.628Z,3.60
2023-05-13T01:23:33.184Z,3.55
2023-05-13T01:25:59.651Z,3.60
2023-05-13T01:28:26.123Z,3.72
2023-05-13T01:30:52.587Z,3.60
2023-05-13T01:33:20.180Z,3.65
2023-05-13T01:35:46.740Z,3.40
2023-05-13T01:38:14.056Z,3.38
2023-05-13T01:40:42.836Z,3.70
2023-05-13T01:43:09.288Z,3.50
2023-05-13T01:45:35.740Z,3.63
2023-05-13T01:48:04.638Z,3.60
2023-05-13T01:50:31.154Z,3.95
2023-05-13T01:52:57.696Z,3.63
2023-05-13T01:55:24.194Z,3.47
2023-05-13T01:57:50.663Z,3.20
2023-05-13T02:00:17.390Z,3.40
2023-05-13T02:02:47.130Z,3.30
2023-05-13T02:05:16.026Z,3.60
2023-05-13T02:07:44.945Z,3.28
2023-05-13T02:10:11.817Z,3.35
2023-05-13T02:12:40.659Z,3.30
2023-05-13T02:15:09.748Z,3.40
2023-05-13T02:17:36.347Z,3.50
2023-05-13T02:20:02.875Z,3.30
2023-05-13T02:22:29.553Z,3.55
2023-05-13T02:25:17.949Z,3.17
2023-05-13T02:27:44.528Z,3.40
2023-05-13T02:30:14.392Z,3.38
2023-05-13T02:32:44.068Z,3.38
2023-05-13T02:35:11.094Z,3.40
2023-05-13T02:37:37.772Z,3.33
2023-05-13T02:40:04.632Z,3.60
2023-05-13T02:42:31.212Z,3.53
2023-05-13T02:45:00.076Z,3.42
2023-05-13T02:47:26.633Z,3.15
2023-05-13T02:49:53.409Z,3.20
2023-05-13T02:52:19.954Z,3.72
2023-05-13T02:54:46.565Z,3.25
2023-05-13T02:57:13.362Z,3.08
2023-05-13T02:59:39.838Z,3.30
2023-05-13T03:02:08.697Z,3.17
2023-05-13T03:04:35.182Z,3.10
2023-05-13T03:07:04.057Z,3.47
2023-05-13T03:09:31.663Z,3.30
2023-05-13T03:11:58.573Z,3.13
2023-05-13T03:14:25.106Z,2.95
2023-05-13T03:16:51.732Z,3.30
2023-05-13T03:19:20.461Z,3.70
2023-05-13T03:21:49.339Z,3.00
2023-05-13T03:24:15.894Z,3.30
2023-05-13T03:26:42.345Z,3.17
2023-05-13T03:29:08.870Z,3.38
2023-05-13T03:31:38.029Z,3.40
2023-05-13T03:34:06.856Z,3.00
2023-05-13T03:36:33.346Z,3.35
2023-05-13T03:39:02.747Z,3.20
2023-05-13T03:41:29.283Z,3.38
2023-05-13T03:43:55.798Z,3.10
2023-05-13T03:46:23.161Z,3.08
2023-05-13T03:48:49.866Z,3.10
2023-05-13T03:51:18.914Z,3.00
2023-05-13T03:53:45.473Z,3.40
2023-05-13T03:56:11.939Z,3.20
2023-05-13T03:58:38.948Z,3.20
2023-05-13T04:01:05.502Z,3.03
2023-05-13T04:03:34.872Z,3.05
2023-05-13T04:06:01.394Z,3.08
2023-05-13T04:08:27.928Z,3.22
2023-05-13T04:10:55.875Z,3.22
2023-05-13T04:13:22.369Z,3.05
2023-05-13T04:15:48.862Z,3.20
2023-05-13T04:18:15.382Z,3.05
2023-05-13T04:20:41.957Z,2.92
2023-05-13T04:23:08.492Z,3.03
2023-05-13T04:25:35.331Z,3.22
2023-05-13T04:28:01.859Z,3.15
2023-05-13T04:30:28.316Z,3.22
2023-05-13T04:32:55.015Z,3.28
2023-05-13T04:35:22.018Z,3.03
2023-05-13T04:37:51.251Z,3.60
2023-05-13T04:40:20.251Z,2.80
2023-05-13T04:42:46.935Z,3.10
2023-05-13T04:45:13.469Z,3.60
2023-05-13T04:47:42.335Z,3.40
2023-05-13T04:50:11.137Z,3.47
2023-05-13T04:52:38.041Z,3.20
2023-05-13T04:55:04.732Z,3.05
2023-05-13T04:57:33.563Z,3.40
2023-05-13T05:00:00.166Z,3.28
2023-05-13T05:02:26.745Z,3.00
2023-05-13T05:04:53.195Z,3.10
2023-05-13T05:07:19.679Z,3.20
2023-05-13T05:09:48.511Z,3.03
2023-05-13T05:12:15.081Z,3.20
2023-05-13T05:14:41.584Z,3.30
2023-05-13T05:17:08.117Z,3.30
2023-05-13T05:19:34.827Z,2.95
2023-05-13T05:22:01.369Z,3.13
2023-05-13T05:24:31.101Z,3.30
2023-05-13T05:26:57.788Z,3.30
2023-05-13T05:29:27.323Z,3.20
2023-05-13T05:31:54.046Z,3.35
2023-05-13T05:34:20.569Z,3.30
2023-05-13T05:36:47.493Z,3.00
2023-05-13T05:39:14.139Z,3.17
2023-05-13T05:41:42.762Z,3.28
2023-05-13T05:44:09.433Z,2.92
2023-05-13T05:46:36.051Z,3.00
2023-05-13T05:49:03.732Z,3.30
2023-05-13T05:51:30.391Z,3.00
2023-05-13T05:53:57.008Z,3.20
2023-05-13T05:56:23.524Z,3.13
2023-05-13T05:58:50.140Z,3.17
2023-05-13T06:01:16.649Z,2.78
2023-05-13T06:03:45.634Z,3.30
2023-05-13T06:06:13.930Z,3.10
2023-05-13T06:08:40.395Z,2.90
2023-05-13T06:11:06.822Z,3.03
2023-05-13T06:13:33.357Z,3.22
2023-05-13T06:15:59.862Z,2.90
2023-05-13T06:18:26.362Z,3.22
2023-05-13T06:20:55.200Z,3.35
2023-05-13T06:23:23.814Z,3.13
2023-05-13T06:25:50.411Z,2.90
2023-05-13T06:28:16.991Z,3.30
2023-05-13T06:30:46.459Z,3.15
2023-05-13T06:33:13.154Z,3.30
2023-05-13T06:35:39.804Z,3.20
2023-05-13T06:38:07.654Z,3.10
2023-05-13T06:40:36.501Z,3.03
2023-05-13T06:43:03.025Z,3.08
2023-05-13T06:45:31.031Z,3.17
2023-05-13T06:47:58.671Z,3.08
2023-05-13T06:50:26.708Z,3.40
2023-05-13T06:52:56.654Z,3.20
2023-05-13T06:55:24.194Z,3.30
2023-05-13T06:57:54.001Z,3.58
2023-05-13T07:00:23.540Z,3.15
2023-05-13T07:02:54.146Z,3.10
2023-05-13T07:05:24.832Z,2.97
2023-05-13T07:07:53.731Z,3.17
2023-05-13T07:10:20.546Z,3.40
2023-05-13T07:12:47.474Z,3.03
2023-05-13T07:15:14.153Z,3.20
2023-05-13T07:17:40.924Z,2.88
2023-05-13T07:20:08.745Z,3.58
2023-05-13T07:22:35.433Z,3.03
2023-05-13T07:25:01.942Z,3.63
2023-05-13T07:27:28.420Z,2.88
2023-05-13T07:29:58.788Z,2.63
2023-05-13T07:32:25.354Z,3.03
2023-05-13T07:34:52.814Z,2.70
2023-05-13T07:37:19.349Z,2.80
2023-05-13T07:39:46.803Z,3.00
2023-05-13T07:42:13.447Z,3.13
2023-05-13T07:44:42.415Z,3.20
2023-05-13T07:47:09.001Z,2.83
2023-05-13T07:49:35.563Z,2.97
2023-05-13T07:52:01.966Z,3.00
2023-05-13T07:54:28.617Z,3.30
2023-05-13T07:56:55.136Z,3.10
2023-05-13T07:59:21.583Z,2.92
2023-05-13T08:01:48.078Z,3.00
2023-05-13T08:04:14.702Z,3.13
2023-05-13T08:06:41.319Z,3.30
2023-05-13T08:09:12.325Z,3.20
2023-05-13T08:11:38.860Z,3.00
2023-05-13T08:14:05.598Z,3.30
2023-05-13T08:16:34.409Z,3.20
2023-05-13T08:19:00.871Z,3.20
2023-05-13T08:21:27.466Z,3.00
2023-05-13T08:23:53.935Z,2.95
2023-05-13T08:26:20.560Z,3.15
2023-05-13T08:28:48.022Z,3.08
2023-05-13T08:31:14.848Z,3.10
2023-05-13T08:33:42.721Z,3.10
2023-05-13T08:36:09.710Z,3.05
2023-05-13T08:38:36.232Z,3.45
2023-05-13T08:41:08.062Z,3.10
2023-05-13T08:43:34.561Z,3.03
2023-05-13T08:46:05.522Z,2.85
2023-05-13T08:48:32.198Z,2.97
2023-05-13T08:50:58.724Z,3.17
2023-05-13T08:53:25.171Z,3.08
2023-05-13T08:55:51.811Z,3.05
2023-05-13T08:58:18.313Z,3.03
2023-05-13T09:00:44.731Z,2.90
2023-05-13T09:03:11.783Z,2.97
2023-05-13T09:05:39.065Z,3.15
2023-05-13T09:08:12.449Z,3.10
2023-05-13T09:10:38.953Z,3.10
2023-05-13T09:13:06.057Z,2.78
2023-05-13T09:15:33.059Z,3.10
2023-05-13T09:17:59.731Z,3.15
2023-05-13T09:20:26.796Z,3.33
2023-05-13T09:23:02.583Z,3.10
2023-05-13T09:25:29.097Z,2.90
2023-05-13T09:27:58.663Z,2.97
2023-05-13T09:30:26.050Z,2.80
2023-05-13T09:33:05.461Z,3.30
2023-05-13T09:35:32.150Z,3.20
2023-05-13T09:37:58.648Z,2.88
2023-05-13T09:40:25.351Z,3.10
2023-05-13T09:42:54.440Z,2.90
2023-05-13T09:45:21.220Z,2.83
2023-05-13T09:47:51.006Z,3.00
2023-05-13T09:50:17.701Z,3.00
2023-05-13T09:52:45.490Z,2.92
2023-05-13T09:55:14.365Z,2.88
2023-05-13T09:57:41.103Z,3.40
2023-05-13T10:00:12.821Z,3.08
2023-05-13T10:02:46.650Z,3.38
2023-05-13T10:05:13.112Z,3.92
2023-05-13T10:07:39.721Z,6.75
2023-05-13T10:10:06.730Z,4.72
2023-05-13T10:12:33.144Z,4.30
2023-05-13T10:14:59.760Z,5.75
2023-05-13T10:17:26.313Z,6.97
2023-05-13T10:19:53.238Z,8.15
2023-05-13T10:22:22.001Z,9.48
2023-05-13T10:24:48.463Z,9.95
2023-05-13T10:27:14.896Z,9.30
2023-05-13T10:29:41.367Z,10.68
2023-05-13T10:32:10.357Z,11.98
2023-05-13T10:34:37.444Z,11.57
2023-05-13T10:37:09.635Z,12.43
2023-05-13T10:39:51.812Z,13.65
2023-05-13T10:42:47.941Z,14.63
2023-05-13T10:45:14.498Z,14.77
2023-05-13T10:47:41.156Z,13.30
2023-05-13T10:50:22.208Z,12.68
2023-05-13T10:52:51.247Z,13.48
2023-05-13T10:55:18.828Z,13.13
2023-05-13T10:58:04.173Z,12.38
2023-05-13T11:00:33.292Z,12.55
2023-05-13T11:03:15.356Z,12.73
2023-05-13T11:05:46.342Z,12.50
2023-05-13T11:08:24.178Z,13.38
2023-05-13T11:10:57.080Z,13.90
2023-05-13T11:13:24.673Z,14.40
2023-05-13T11:15:54.666Z,14.15
2023-05-13T11:18:27.409Z,14.02
2023-05-13T11:20:56.448Z,13.77
2023-05-13T11:23:22.912Z,14.32
2023-05-13T11:26:10.002Z,14.90
2023-05-13T11:28:58.276Z,14.25
2023-05-13T11:31:25.878Z,14.38
2023-05-13T11:34:09.694Z,14.95
2023-05-13T11:36:39.546Z,14.73
2023-05-13T11:39:11.384Z,14.73
2023-05-13T11:41:38.638Z,13.73
2023-05-13T11:44:07.465Z,15.15
2023-05-13T11:46:33.928Z,14.93
2023-05-13T11:49:00.577Z,14.60
2023-05-13T11:51:27.031Z,14.50
2023-05-13T11:53:59.592Z,15.00
2023-05-13T11:56:26.630Z,14.93
2023-05-13T11:58:53.537Z,14.90
2023-05-13T12:01:20.166Z,14.52
2023-05-13T12:03:47.426Z,14.73
2023-05-13T12:06:17.283Z,14.77
2023-05-13T12:08:45.464Z,15.13
2023-05-13T12:11:15.110Z,14.48
2023-05-13T12:13:41.592Z,14.10
2023-05-13T12:16:10.453Z,15.13
2023-05-13T12:18:37.370Z,14.77
2023-05-13T12:21:13.874Z,14.48
2023-05-13T12:23:43.276Z,14.15
2023-05-13T12:26:09.983Z,14.38
2023-05-13T12:28:36.460Z,14.52
2023-05-13T12:31:05.689Z,14.48
2023-05-13T12:33:35.686Z,14.75
2023-05-13T12:36:16.515Z,14.32
2023-05-13T12:38:58.908Z,15.10
2023-05-13T12:41:27.526Z,14.80
2023-05-13T12:43:57.833Z,14.63
2023-05-13T12:46:24.826Z,14.18
2023-05-13T12:49:00.849Z,13.75
2023-05-13T12:51:27.482Z,13.50
2023-05-13T12:53:54.549Z,13.75
2023-05-13T12:56:22.399Z,14.70
2023-05-13T12:58:49.794Z,13.80
2023-05-13T13:01:16.589Z,14.07
2023-05-13T13:03:43.404Z,14.18
2023-05-13T13:06:10.408Z,14.20
2023-05-13T13:08:37.130Z,13.93
2023-05-13T13:11:04.455Z,13.27
2023-05-13T13:13:35.206Z,14.02
2023-05-13T13:16:05.543Z,13.10
2023-05-13T13:18:34.659Z,13.43
2023-05-13T13:21:01.183Z,13.20
2023-05-13T13:23:30.039Z,13.55
2023-05-13T13:25:58.458Z,12.48
2023-05-13T13:28:28.008Z,12.88
2023-05-13T13:30:54.753Z,12.23
2023-05-13T13:33:21.295Z,13.13
2023-05-13T13:35:48.267Z,12.45
2023-05-13T13:38:15.072Z,12.10
2023-05-13T13:40:43.963Z,13.02
2023-05-13T13:43:11.211Z,12.82
2023-05-13T13:45:37.753Z,13.38
2023-05-13T13:48:06.608Z,12.75
2023-05-13T13:50:33.174Z,12.07
2023-05-13T13:52:59.740Z,12.90
2023-05-13T13:55:26.467Z,11.88
2023-05-13T13:57:55.156Z,12.63
2023-05-13T14:00:24.219Z,12.55
2023-05-13T14:02:50.925Z,12.23
2023-05-13T14:05:19.534Z,12.80
2023-05-13T14:07:48.404Z,12.27
2023-05-13T14:10:15.072Z,12.43
2023-05-13T14:12:41.812Z,12.30
2023-05-13T14:15:11.253Z,12.10
2023-05-13T14:17:40.188Z,11.20
2023-05-13T14:20:07.051Z,11.75
2023-05-13T14:22:33.577Z,11.48
2023-05-13T14:25:01.423Z,12.23
2023-05-13T14:27:28.404Z,11.82
2023-05-13T14:29:54.951Z,11.63
2023-05-13T14:32:23.912Z,11.82
2023-05-13T14:34:51.342Z,11.82
2023-05-13T14:37:17.897Z,12.07
2023-05-13T14:39:49.896Z,11.90
2023-05-13T14:42:17.042Z,11.80
2023-05-13T14:44:43.689Z,11.40
2023-05-13T14:47:10.503Z,11.13
2023-05-13T14:49:37.191Z,11.95
2023-05-13T14:52:03.813Z,10.70
2023-05-13T14:54:35.709Z,10.77
2023-05-13T14:57:05.924Z,11.65
2023-05-13T14:59:32.964Z,11.55
2023-05-13T15:02:00.542Z,11.25
2023-05-13T15:04:29.446Z,11.00
2023-05-13T15:06:58.356Z,11.30
2023-05-13T15:09:24.912Z,10.52
2023-05-13T15:11:51.534Z,11.25
2023-05-13T15:14:18.333Z,10.85
2023-05-13T15:16:47.010Z,10.85
2023-05-13T15:19:13.636Z,11.13
2023-05-13T15:21:40.159Z,11.20
2023-05-13T15:24:06.682Z,10.55
2023-05-13T15:26:33.770Z,10.65
2023-05-13T15:29:00.346Z,11.13
2023-05-13T15:31:26.845Z,11.02
2023-05-13T15:33:55.499Z,10.68
2023-05-13T15:36:22.386Z,10.73
2023-05-13T15:38:51.147Z,10.60
2023-05-13T15:41:17.602Z,11.15
2023-05-13T15:43:44.220Z,10.43
2023-05-13T15:46:10.818Z,10.63
2023-05-13T15:48:37.692Z,10.32
2023-05-13T15:51:04.371Z,10.55
2023-05-13T15:53:32.132Z,10.00
2023-05-13T15:55:58.588Z,10.27
2023-05-13T15:58:25.228Z,10.43
2023-05-13T16:00:51.816Z,10.40
2023-05-13T16:03:18.272Z,10.43
2023-05-13T16:05:44.744Z,9.27
2023-05-13T16:08:11.323Z,10.13
2023-05-13T16:10:38.952Z,10.50
2023-05-13T16:13:05.519Z,10.60
2023-05-13T16:15:32.106Z,9.85
2023-05-13T16:18:00.170Z,9.38
2023-05-13T16:20:26.868Z,9.27
2023-05-13T16:22:53.344Z,9.70
2023-05-13T16:25:19.918Z,9.40
2023-05-13T16:27:46.568Z,9.15
2023-05-13T16:30:13.107Z,9.65
2023-05-13T16:32:39.864Z,9.57
2023-05-13T16:35:06.688Z,9.35
2023-05-13T16:37:35.112Z,8.82
2023-05-13T16:40:01.667Z,9.02
2023-05-13T16:42:29.172Z,9.07
2023-05-13T16:44:56.015Z,9.20
2023-05-13T16:47:22.812Z,9.25
2023-05-13T16:49:50.288Z,9.25
2023-05-13T16:52:16.799Z,8.60
2023-05-13T16:54:43.423Z,9.20
2023-05-13T16:57:12.228Z,9.15
2023-05-13T16:59:38.857Z,8.82
2023-05-13T17:02:05.548Z,8.30
2023-05-13T17:04:32.268Z,9.13
2023-05-13T17:06:59.364Z,8.60
2023-05-13T17:09:28.695Z,8.75
2023-05-13T17:11:57.478Z,9.32
2023-05-13T17:14:24.191Z,9.00
2023-05-13T17:16:50.766Z,8.77
2023-05-13T17:19:17.417Z,8.70
2023-05-13T17:21:43.953Z,8.38
2023-05-13T17:24:10.658Z,8.82
2023-05-13T17:26:38.767Z,8.98
2023-05-13T17:29:05.680Z,8.63
2023-05-13T17:31:32.489Z,8.07
2023-05-13T17:33:59.306Z,8.60
2023-05-13T17:36:26.151Z,8.43
2023-05-13T17:38:52.750Z,8.50
2023-05-13T17:41:19.230Z,8.82
2023-05-13T17:43:46.028Z,8.95
2023-05-13T17:46:12.519Z,8.93
2023-05-13T17:48:39.156Z,8.40
2023-05-13T17:51:05.913Z,8.07
2023-05-13T17:53:34.545Z,8.30
2023-05-13T17:56:01.611Z,8.27
2023-05-13T17:58:28.064Z,8.02
2023-05-13T18:00:54.571Z,8.00
2023-05-13T18:03:21.947Z,8.75
2023-05-13T18:05:48.610Z,7.78
2023-05-13T18:08:15.094Z,8.20
2023-05-13T18:10:41.459Z,8.43
2023-05-13T18:13:08.081Z,7.68
2023-05-13T18:15:34.688Z,7.68
2023-05-13T18:18:03.725Z,8.63
2023-05-13T18:20:30.708Z,8.52
2023-05-13T18:22:57.211Z,8.77
2023-05-13T18:25:23.820Z,8.18
2023-05-13T18:27:52.685Z,8.10
2023-05-13T18:30:21.752Z,7.97
2023-05-13T18:32:50.885Z,8.07
2023-05-13T18:35:21.283Z,8.05
2023-05-13T18:37:47.819Z,7.70
2023-05-13T18:40:14.260Z,7.70
2023-05-13T18:42:42.251Z,8.00
2023-05-13T18:45:09.417Z,8.15
2023-05-13T18:47:37.898Z,8.00
2023-05-13T18:50:04.957Z,8.20
2023-05-13T18:52:31.819Z,7.85
2023-05-13T18:54:58.253Z,7.88
2023-05-13T18:57:24.633Z,8.35
2023-05-13T18:59:53.496Z,7.40
2023-05-13T19:02:22.020Z,7.32
2023-05-13T19:04:51.009Z,7.88
2023-05-13T19:07:20.448Z,7.40
2023-05-13T19:09:48.432Z,7.43
2023-05-13T19:12:14.901Z,7.80
2023-05-13T19:14:43.593Z,8.05
2023-05-13T19:17:12.577Z,7.68
2023-05-13T19:19:39.186Z,7.25
2023-05-13T19:22:05.755Z,7.40
2023-05-13T19:24:32.314Z,7.68
2023-05-13T19:26:58.833Z,6.97
2023-05-13T19:29:25.331Z,7.50
2023-05-13T19:31:51.832Z,7.78
2023-05-13T19:34:18.292Z,7.72
2023-05-13T19:36:46.219Z,7.32
2023-05-13T19:39:12.816Z,7.50
2023-05-13T19:41:41.846Z,7.32
2023-05-13T19:44:08.285Z,6.90
2023-05-13T19:46:34.727Z,7.18
2023-05-13T19:49:02.380Z,6.85
2023-05-13T19:51:28.925Z,7.40
2023-05-13T19:53:55.529Z,7.22
2023-05-13T19:56:23.076Z,7.15
2023-05-13T19:58:52.359Z,7.18
2023-05-13T20:01:18.836Z,7.10
2023-05-13T20:03:46.010Z,6.82
2023-05-13T20:06:12.948Z,7.10
2023-05-13T20:08:39.411Z,6.80
2023-05-13T20:11:08.251Z,7.30
2023-05-13T20:13:34.793Z,6.75
2023-05-13T20:16:01.293Z,7.25
2023-05-13T20:18:27.850Z,6.55
2023-05-13T20:20:54.617Z,6.63
2023-05-13T20:23:21.114Z,6.88
2023-05-13T20:25:47.676Z,6.53
2023-05-13T20:28:16.662Z,7.30
2023-05-13T20:30:45.608Z,6.22
2023-05-13T20:33:12.600Z,7.00
2023-05-13T20:35:39.090Z,6.80
2023-05-13T20:38:06.017Z,7.07
2023-05-13T20:40:32.474Z,6.55
2023-05-13T20:43:01.433Z,6.60
2023-05-13T20:45:28.309Z,6.38
2023-05-13T20:47:59.436Z,6.22
2023-05-13T20:50:28.344Z,6.25
2023-05-13T20:52:55.072Z,6.50
2023-05-13T20:55:21.950Z,6.65
2023-05-13T20:57:48.657Z,6.38
2023-05-13T21:00:15.508Z,6.55
2023-05-13T21:02:45.128Z,6.53
2023-05-13T21:05:12.222Z,7.00
2023-05-13T21:07:38.784Z,7.00
2023-05-13T21:10:05.514Z,6.53
2023-05-13T21:12:34.291Z,6.97
2023-05-13T21:15:00.762Z,6.70
2023-05-13T21:17:27.332Z,6.28
2023-05-13T21:19:56.154Z,5.97
2023-05-13T21:22:22.629Z,6.30
2023-05-13T21:24:50.462Z,5.90
2023-05-13T21:27:17.093Z,6.00
2023-05-13T21:29:45.924Z,6.38
2023-05-13T21:32:12.640Z,6.47
2023-05-13T21:34:40.063Z,6.18
2023-05-13T21:37:06.515Z,6.72
2023-05-13T21:39:32.931Z,6.05
2023-05-13T21:42:00.953Z,6.32
2023-05-13T21:44:27.476Z,6.65
2023-05-13T21:46:54.117Z,6.00
2023-05-13T21:49:20.586Z,6.05
2023-05-13T21:51:47.017Z,6.15
2023-05-13T21:54:13.596Z,6.63
2023-05-13T21:56:40.032Z,6.00
2023-05-13T21:59:08.835Z,5.70
2023-05-13T22:01:37.777Z,5.60
2023-05-13T22:04:04.303Z,6.05
2023-05-13T22:06:33.213Z,5.60
2023-05-13T22:09:02.813Z,6.00
2023-05-13T22:11:29.407Z,5.93
2023-05-13T22:13:58.196Z,6.20
2023-05-13T22:16:25.252Z,5.55
2023-05-13T22:18:51.977Z,5.82
2023-05-13T22:21:20.520Z,5.88
2023-05-13T22:23:47.063Z,5.57
2023-05-13T22:26:13.542Z,5.95
2023-05-13T22:28:40.540Z,5.68
2023-05-13T22:31:08.373Z,5.53
2023-05-13T22:33:34.886Z,5.30
2023-05-13T22:36:02.286Z,5.82
2023-05-13T22:38:31.052Z,5.82
2023-05-13T22:41:00.806Z,6.03
2023-05-13T22:43:27.259Z,6.18
2023-05-13T22:45:56.049Z,5.53
2023-05-13T22:48:24.921Z,5.65
2023-05-13T22:50:54.238Z,5.18
2023-05-13T22:53:20.862Z,5.82
2023-05-13T22:55:47.340Z,5.95
2023-05-13T22:58:13.815Z,5.60
2023-05-13T23:00:40.258Z,5.75
2023-05-13T23:03:06.882Z,5.90
2023-05-13T23:05:33.415Z,5.38
2023-05-13T23:08:00.053Z,5.35
2023-05-13T23:10:26.627Z,6.10
2023-05-13T23:12:53.106Z,5.32
2023-05-13T23:15:19.564Z,5.53
2023-05-13T23:17:48.488Z,4.80
2023-05-13T23:20:14.979Z,5.35
2023-05-13T23:22:41.922Z,5.57
2023-05-13T23:25:09.042Z,5.07
2023-05-13T23:27:37.894Z,5.68
2023-05-13T23:30:04.574Z,5.78
2023-05-13T23:32:31.169Z,5.30
2023-05-13T23:34:58.395Z,5.47
2023-05-13T23:37:24.898Z,5.32
2023-05-13T23:39:53.643Z,5.50
2023-05-13T23:42:22.479Z,5.47
2023-05-13T23:44:49.060Z,5.50
2023-05-13T23:47:17.883Z,5.40
2023-05-13T23:49:44.379Z,5.50
2023-05-13T23:52:11.140Z,5.05
2023-05-13T23:54:39.961Z,5.32
2023-05-13T23:57:06.488Z,5.18
2023-05-13T23:59:33.094Z,5.40
